Terminal Aerodrome Forecast
Issued by NWS

Home | Current Version | Previous Version | Text Only | Print | Product List | Glossary On
Versions: 1 2 3 4 5 6 7 8 9 10 11 12 13 14 15 16 17 18
000
FTUS43 KLSX 061353 AAA
TAFUIN
TAF AMD
KUIN 061353Z 0614/0712 32004KT 3SM BR OVC005
     FM061600 31012KT P6SM OVC010
     FM061800 30013KT P6SM SCT015
     FM062300 27008KT P6SM FEW250=

USA.gov is the U.S. government's official web portal to all federal, state and local government web resources and services.